RYR70QN LIPQ-LIEO
Flight info
| Callsign | RYR70QN |
|---|---|
| Flight time | 1h 11m |
| Altitude | 35000 |
| Route | ROSKA DCT TULIK DCT CHI DCT LOBSI DCT AMTEL DCT APSUX/N0340F190 Q710 GITRI |
| Aircraft | B738/M-SDE3FGILRWY/SB1 |
Departure
| Time | 2026-04-28 16:18 |
|---|---|
| Airport | Trieste Airport (LIPQ) |
Arrival
| Time | 2026-04-28 17:29 |
|---|---|
| Airport | Olbia Costa Smeralda Airport (LIEO) |
| Time | Latitude | Longitude | Altitude | Speed | Heading |
|---|---|---|---|---|---|
| 2026-04-28 15:49 | 45.82230 | 13.48532 | 36 ft | 0 kts | 168° |
| 2026-04-28 16:08 | 45.82238 | 13.48530 | 45 ft | 2 kts | 158° |
| 2026-04-28 16:08 | 45.82253 | 13.48521 | 43 ft | 2 kts | 153° |
| 2026-04-28 16:09 | 45.82272 | 13.48493 | 45 ft | 2 kts | 110° |
| 2026-04-28 16:09 | 45.82276 | 13.48470 | 44 ft | 2 kts | 90° |
| 2026-04-28 16:09 | 45.82275 | 13.48452 | 45 ft | 1 kts | 79° |
| 2026-04-28 16:10 | 45.82274 | 13.48451 | 45 ft | 0 kts | 80° |
| 2026-04-28 16:13 | 45.82285 | 13.48526 | 42 ft | 7 kts | 75° |
| 2026-04-28 16:14 | 45.82383 | 13.48570 | 44 ft | 8 kts | 360° |
| 2026-04-28 16:14 | 45.82498 | 13.48569 | 44 ft | 8 kts | 360° |
| 2026-04-28 16:15 | 45.82606 | 13.48568 | 44 ft | 7 kts | 360° |
| 2026-04-28 16:15 | 45.82657 | 13.48568 | 44 ft | 7 kts | 360° |
| 2026-04-28 16:15 | 45.82707 | 13.48568 | 44 ft | 7 kts | 5° |
| 2026-04-28 16:16 | 45.82776 | 13.48479 | 42 ft | 0 kts | 273° |
| 2026-04-28 16:16 | 45.82777 | 13.48464 | 42 ft | 1 kts | 270° |
| 2026-04-28 16:17 | 45.82777 | 13.48457 | 42 ft | 0 kts | 270° |
| 2026-04-28 16:17 | 45.82777 | 13.48454 | 42 ft | 3 kts | 270° |
| 2026-04-28 16:17 | 45.82779 | 13.48208 | 43 ft | 60 kts | 271° |
| 2026-04-28 16:17 | 45.82783 | 13.47151 | 52 ft | 148 kts | 269° |
| 2026-04-28 16:18 | 45.82754 | 13.45458 | 580 ft | 181 kts | 267° |
| 2026-04-28 16:18 | 45.82667 | 13.43663 | 1785 ft | 174 kts | 264° |
| 2026-04-28 16:18 | 45.82585 | 13.41927 | 2688 ft | 182 kts | 269° |
| 2026-04-28 16:18 | 45.82567 | 13.39978 | 3084 ft | 207 kts | 270° |
| 2026-04-28 16:19 | 45.82604 | 13.37828 | 3383 ft | 228 kts | 272° |
| 2026-04-28 16:19 | 45.82695 | 13.35463 | 3720 ft | 249 kts | 272° |
| 2026-04-28 16:19 | 45.82761 | 13.32920 | 4222 ft | 264 kts | 271° |
| 2026-04-28 16:19 | 45.82886 | 13.30278 | 5005 ft | 269 kts | 284° |
| 2026-04-28 16:20 | 45.83838 | 13.27999 | 5808 ft | 272 kts | 319° |
| 2026-04-28 16:20 | 45.85550 | 13.26873 | 6596 ft | 277 kts | 353° |
| 2026-04-28 16:20 | 45.87437 | 13.27305 | 7348 ft | 281 kts | 27° |
| 2026-04-28 16:20 | 45.88871 | 13.29179 | 8090 ft | 284 kts | 60° |
| 2026-04-28 16:21 | 45.89368 | 13.31894 | 8817 ft | 287 kts | 94° |
| 2026-04-28 16:21 | 45.88761 | 13.34588 | 9546 ft | 288 kts | 126° |
| 2026-04-28 16:21 | 45.87483 | 13.36810 | 10278 ft | 292 kts | 130° |
| 2026-04-28 16:21 | 45.86223 | 13.39225 | 10521 ft | 315 kts | 123° |
| 2026-04-28 16:22 | 45.85079 | 13.42003 | 10893 ft | 330 kts | 118° |
| 2026-04-28 16:22 | 45.84015 | 13.44957 | 11542 ft | 336 kts | 117° |
| 2026-04-28 16:22 | 45.82981 | 13.47965 | 12275 ft | 337 kts | 116° |
| 2026-04-28 16:22 | 45.81652 | 13.50726 | 12823 ft | 341 kts | 139° |
| 2026-04-28 16:23 | 45.79616 | 13.52438 | 13424 ft | 342 kts | 162° |
| 2026-04-28 16:23 | 45.77263 | 13.52890 | 14053 ft | 344 kts | 184° |
| 2026-04-28 16:23 | 45.74944 | 13.52075 | 14661 ft | 347 kts | 205° |
| 2026-04-28 16:23 | 45.72969 | 13.50098 | 15260 ft | 350 kts | 226° |
| 2026-04-28 16:24 | 45.71618 | 13.47202 | 15857 ft | 353 kts | 246° |
| 2026-04-28 16:24 | 45.71019 | 13.43788 | 16480 ft | 358 kts | 264° |
| 2026-04-28 16:24 | 45.70907 | 13.40217 | 17199 ft | 361 kts | 269° |
| 2026-04-28 16:24 | 45.70882 | 13.36614 | 17880 ft | 364 kts | 269° |
| 2026-04-28 16:25 | 45.70830 | 13.32972 | 18523 ft | 368 kts | 268° |
| 2026-04-28 16:25 | 45.70500 | 13.29330 | 19117 ft | 372 kts | 251° |
| 2026-04-28 16:25 | 45.69324 | 13.26043 | 19743 ft | 375 kts | 232° |
| 2026-04-28 16:25 | 45.67603 | 13.23232 | 20393 ft | 377 kts | 227° |
| 2026-04-28 16:26 | 45.65813 | 13.20462 | 20960 ft | 381 kts | 227° |
| 2026-04-28 16:26 | 45.63993 | 13.17678 | 21504 ft | 385 kts | 223° |
| 2026-04-28 16:26 | 45.61871 | 13.15314 | 22048 ft | 389 kts | 214° |
| 2026-04-28 16:26 | 45.59616 | 13.13161 | 22608 ft | 391 kts | 213° |
| 2026-04-28 16:27 | 45.57326 | 13.11031 | 23129 ft | 395 kts | 213° |
| 2026-04-28 16:27 | 45.55017 | 13.08875 | 23633 ft | 398 kts | 213° |
| 2026-04-28 16:27 | 45.50368 | 13.04456 | 24619 ft | 404 kts | 214° |
| 2026-04-28 16:28 | 45.48027 | 13.02204 | 25091 ft | 407 kts | 214° |
| 2026-04-28 16:28 | 45.45675 | 12.99936 | 25552 ft | 410 kts | 214° |
| 2026-04-28 16:28 | 45.43301 | 12.97646 | 25990 ft | 413 kts | 214° |
| 2026-04-28 16:28 | 45.40913 | 12.95343 | 26407 ft | 416 kts | 214° |
| 2026-04-28 16:29 | 45.36087 | 12.90699 | 27244 ft | 422 kts | 214° |
| 2026-04-28 16:29 | 45.31339 | 12.85734 | 27992 ft | 427 kts | 228° |
| 2026-04-28 16:30 | 45.29650 | 12.82290 | 28491 ft | 425 kts | 240° |
| 2026-04-28 16:30 | 45.28207 | 12.78647 | 29092 ft | 422 kts | 240° |
| 2026-04-28 16:30 | 45.26762 | 12.75032 | 29568 ft | 421 kts | 240° |
| 2026-04-28 16:30 | 45.25291 | 12.71438 | 29997 ft | 421 kts | 239° |
| 2026-04-28 16:31 | 45.23804 | 12.67853 | 30437 ft | 421 kts | 239° |
| 2026-04-28 16:31 | 45.22315 | 12.64286 | 30907 ft | 419 kts | 239° |
| 2026-04-28 16:31 | 45.20827 | 12.60734 | 31358 ft | 418 kts | 239° |
| 2026-04-28 16:31 | 45.19342 | 12.57193 | 31765 ft | 418 kts | 239° |
| 2026-04-28 16:32 | 45.17858 | 12.53654 | 32158 ft | 417 kts | 239° |
| 2026-04-28 16:32 | 45.14895 | 12.46596 | 32951 ft | 416 kts | 239° |
| 2026-04-28 16:32 | 45.13419 | 12.43085 | 33317 ft | 415 kts | 239° |
| 2026-04-28 16:33 | 45.11970 | 12.39640 | 33661 ft | 415 kts | 239° |
| 2026-04-28 16:33 | 45.10964 | 12.37252 | 33908 ft | 414 kts | 239° |
| 2026-04-28 16:33 | 45.08983 | 12.32588 | 34374 ft | 413 kts | 236° |
| 2026-04-28 16:33 | 45.07179 | 12.29441 | 34676 ft | 413 kts | 224° |
| 2026-04-28 16:34 | 45.04973 | 12.26853 | 34975 ft | 412 kts | 214° |
| 2026-04-28 16:34 | 45.02457 | 12.24869 | 34978 ft | 418 kts | 205° |
| 2026-04-28 16:34 | 44.97129 | 12.21568 | 35008 ft | 416 kts | 204° |
| 2026-04-28 16:35 | 44.91940 | 12.18250 | 35000 ft | 409 kts | 205° |
| 2026-04-28 16:35 | 44.86529 | 12.15774 | 35017 ft | 410 kts | 194° |
| 2026-04-28 16:36 | 44.80968 | 12.13925 | 35004 ft | 411 kts | 193° |
| 2026-04-28 16:36 | 44.75396 | 12.12080 | 35001 ft | 412 kts | 193° |
| 2026-04-28 16:37 | 44.69813 | 12.10196 | 35000 ft | 413 kts | 194° |
| 2026-04-28 16:38 | 44.61427 | 12.07337 | 35006 ft | 414 kts | 194° |
| 2026-04-28 16:38 | 44.55829 | 12.05428 | 35009 ft | 414 kts | 194° |
| 2026-04-28 16:39 | 44.50234 | 12.03524 | 35004 ft | 414 kts | 194° |
| 2026-04-28 16:39 | 44.44638 | 12.01624 | 35006 ft | 414 kts | 194° |
| 2026-04-28 16:40 | 44.39047 | 11.99729 | 34997 ft | 413 kts | 194° |
| 2026-04-28 16:40 | 44.33465 | 11.97842 | 34998 ft | 412 kts | 194° |
| 2026-04-28 16:41 | 44.27889 | 11.95960 | 34998 ft | 412 kts | 194° |
| 2026-04-28 16:41 | 44.22325 | 11.94086 | 34998 ft | 411 kts | 194° |
| 2026-04-28 16:42 | 44.16767 | 11.92217 | 34999 ft | 411 kts | 194° |
| 2026-04-28 16:42 | 44.11214 | 11.90354 | 34998 ft | 410 kts | 194° |
| 2026-04-28 16:43 | 44.05667 | 11.88497 | 34999 ft | 410 kts | 194° |
| 2026-04-28 16:43 | 44.00116 | 11.86641 | 35004 ft | 410 kts | 194° |
| 2026-04-28 16:44 | 43.94566 | 11.84790 | 35001 ft | 410 kts | 193° |
| 2026-04-28 16:44 | 43.89053 | 11.82954 | 35007 ft | 410 kts | 193° |
| 2026-04-28 16:45 | 43.83497 | 11.81108 | 34999 ft | 411 kts | 193° |
| 2026-04-28 16:45 | 43.77943 | 11.79265 | 35007 ft | 411 kts | 193° |
| 2026-04-28 16:46 | 43.72379 | 11.77423 | 34998 ft | 411 kts | 193° |
| 2026-04-28 16:46 | 43.66808 | 11.75582 | 35010 ft | 411 kts | 193° |
| 2026-04-28 16:47 | 43.61238 | 11.73745 | 34998 ft | 412 kts | 193° |
| 2026-04-28 16:47 | 43.55668 | 11.71912 | 35002 ft | 412 kts | 193° |
| 2026-04-28 16:48 | 43.50096 | 11.70081 | 35002 ft | 412 kts | 193° |
| 2026-04-28 16:48 | 43.44535 | 11.68257 | 34999 ft | 411 kts | 193° |
| 2026-04-28 16:49 | 43.38955 | 11.66431 | 34998 ft | 411 kts | 193° |
| 2026-04-28 16:49 | 43.33392 | 11.64613 | 34998 ft | 411 kts | 193° |
| 2026-04-28 16:50 | 43.27829 | 11.62798 | 35002 ft | 411 kts | 193° |
| 2026-04-28 16:50 | 43.22270 | 11.60979 | 35006 ft | 410 kts | 195° |
| 2026-04-28 16:51 | 43.16885 | 11.58420 | 35009 ft | 410 kts | 201° |
| 2026-04-28 16:51 | 43.11574 | 11.55565 | 35009 ft | 410 kts | 201° |
| 2026-04-28 16:52 | 43.06263 | 11.52732 | 35003 ft | 410 kts | 201° |
| 2026-04-28 16:52 | 43.00945 | 11.49944 | 35005 ft | 409 kts | 201° |
| 2026-04-28 16:53 | 42.96520 | 11.47645 | 35008 ft | 409 kts | 201° |
| 2026-04-28 16:53 | 42.91192 | 11.44887 | 34998 ft | 409 kts | 201° |
| 2026-04-28 16:54 | 42.85862 | 11.42135 | 34998 ft | 410 kts | 201° |
| 2026-04-28 16:54 | 42.80531 | 11.39385 | 35008 ft | 410 kts | 201° |
| 2026-04-28 16:55 | 42.75197 | 11.36640 | 35009 ft | 410 kts | 201° |
| 2026-04-28 16:55 | 42.69861 | 11.33898 | 35002 ft | 410 kts | 201° |
| 2026-04-28 16:56 | 42.64524 | 11.31161 | 35001 ft | 410 kts | 201° |
| 2026-04-28 16:56 | 42.59184 | 11.28428 | 34997 ft | 410 kts | 201° |
| 2026-04-28 16:57 | 42.53846 | 11.25700 | 35000 ft | 410 kts | 201° |
| 2026-04-28 16:57 | 42.48519 | 11.22983 | 35010 ft | 410 kts | 201° |
| 2026-04-28 16:58 | 42.43173 | 11.20261 | 35005 ft | 410 kts | 201° |
| 2026-04-28 16:58 | 42.37835 | 11.17548 | 34999 ft | 410 kts | 201° |
| 2026-04-28 16:59 | 42.32500 | 11.14842 | 35002 ft | 410 kts | 200° |
| 2026-04-28 16:59 | 42.27165 | 11.12141 | 34998 ft | 409 kts | 200° |
| 2026-04-28 17:00 | 42.21833 | 11.09446 | 35001 ft | 409 kts | 200° |
| 2026-04-28 17:00 | 42.19153 | 11.08093 | 34757 ft | 413 kts | 200° |
| 2026-04-28 17:00 | 42.16469 | 11.06739 | 34510 ft | 410 kts | 200° |
| 2026-04-28 17:00 | 42.13801 | 11.05395 | 34261 ft | 409 kts | 200° |
| 2026-04-28 17:01 | 42.11137 | 11.04054 | 34015 ft | 409 kts | 200° |
| 2026-04-28 17:01 | 42.08469 | 11.02712 | 33767 ft | 410 kts | 200° |
| 2026-04-28 17:01 | 42.05794 | 11.01368 | 33534 ft | 410 kts | 200° |
| 2026-04-28 17:01 | 42.03117 | 11.00025 | 33282 ft | 411 kts | 200° |
| 2026-04-28 17:02 | 42.00436 | 10.98680 | 33032 ft | 411 kts | 200° |
| 2026-04-28 17:02 | 41.97755 | 10.97336 | 32790 ft | 412 kts | 200° |
| 2026-04-28 17:02 | 41.95105 | 10.96009 | 32546 ft | 412 kts | 200° |
| 2026-04-28 17:02 | 41.92416 | 10.94664 | 32300 ft | 413 kts | 200° |
| 2026-04-28 17:03 | 41.87032 | 10.91975 | 31808 ft | 413 kts | 200° |
| 2026-04-28 17:03 | 41.84337 | 10.90630 | 31559 ft | 414 kts | 200° |
| 2026-04-28 17:03 | 41.81638 | 10.89285 | 31306 ft | 414 kts | 200° |
| 2026-04-28 17:04 | 41.76235 | 10.86595 | 30817 ft | 414 kts | 200° |
| 2026-04-28 17:04 | 41.73530 | 10.85251 | 30570 ft | 415 kts | 200° |
| 2026-04-28 17:05 | 41.68115 | 10.82563 | 30073 ft | 415 kts | 200° |
| 2026-04-28 17:05 | 41.65404 | 10.81219 | 29634 ft | 416 kts | 200° |
| 2026-04-28 17:05 | 41.62682 | 10.79870 | 29004 ft | 418 kts | 200° |
| 2026-04-28 17:06 | 41.57197 | 10.77157 | 27575 ft | 423 kts | 200° |
| 2026-04-28 17:06 | 41.54428 | 10.75790 | 26810 ft | 426 kts | 200° |
| 2026-04-28 17:06 | 41.48865 | 10.73046 | 25548 ft | 424 kts | 200° |
| 2026-04-28 17:07 | 41.46102 | 10.71684 | 24941 ft | 422 kts | 200° |
| 2026-04-28 17:07 | 41.43353 | 10.70331 | 24346 ft | 420 kts | 200° |
| 2026-04-28 17:07 | 41.40616 | 10.68986 | 23754 ft | 418 kts | 200° |
| 2026-04-28 17:07 | 41.37894 | 10.67648 | 23159 ft | 416 kts | 200° |
| 2026-04-28 17:08 | 41.35188 | 10.66320 | 22575 ft | 413 kts | 200° |
| 2026-04-28 17:08 | 41.32498 | 10.65000 | 21991 ft | 411 kts | 200° |
| 2026-04-28 17:08 | 41.29823 | 10.63689 | 21403 ft | 409 kts | 200° |
| 2026-04-28 17:08 | 41.27165 | 10.62387 | 20822 ft | 406 kts | 200° |
| 2026-04-28 17:09 | 41.24522 | 10.61094 | 20243 ft | 403 kts | 200° |
| 2026-04-28 17:09 | 41.21899 | 10.59798 | 19664 ft | 401 kts | 202° |
| 2026-04-28 17:09 | 41.19442 | 10.58084 | 19081 ft | 398 kts | 213° |
| 2026-04-28 17:09 | 41.17284 | 10.55855 | 18799 ft | 388 kts | 222° |
| 2026-04-28 17:10 | 41.15478 | 10.53259 | 18538 ft | 378 kts | 231° |
| 2026-04-28 17:10 | 41.13859 | 10.50567 | 18301 ft | 370 kts | 231° |
| 2026-04-28 17:10 | 41.12299 | 10.47946 | 18068 ft | 365 kts | 231° |
| 2026-04-28 17:10 | 41.10717 | 10.45306 | 17843 ft | 365 kts | 231° |
| 2026-04-28 17:11 | 41.09128 | 10.42680 | 17611 ft | 365 kts | 231° |
| 2026-04-28 17:11 | 41.07512 | 10.40029 | 17374 ft | 364 kts | 231° |
| 2026-04-28 17:11 | 41.05938 | 10.37458 | 17144 ft | 364 kts | 231° |
| 2026-04-28 17:11 | 41.04322 | 10.34819 | 16917 ft | 364 kts | 231° |
| 2026-04-28 17:12 | 41.02758 | 10.32241 | 16836 ft | 364 kts | 231° |
| 2026-04-28 17:12 | 41.01198 | 10.29659 | 16796 ft | 353 kts | 231° |
| 2026-04-28 17:12 | 40.99686 | 10.27157 | 16563 ft | 346 kts | 231° |
| 2026-04-28 17:12 | 40.98162 | 10.24636 | 16116 ft | 350 kts | 231° |
| 2026-04-28 17:13 | 40.96609 | 10.22074 | 15796 ft | 353 kts | 231° |
| 2026-04-28 17:13 | 40.95087 | 10.19567 | 15571 ft | 356 kts | 231° |
| 2026-04-28 17:13 | 40.93703 | 10.16854 | 15305 ft | 358 kts | 246° |
| 2026-04-28 17:13 | 40.93033 | 10.13706 | 15076 ft | 355 kts | 257° |
| 2026-04-28 17:14 | 40.92255 | 10.10602 | 14771 ft | 355 kts | 247° |
| 2026-04-28 17:14 | 40.91229 | 10.07642 | 14538 ft | 354 kts | 244° |
| 2026-04-28 17:14 | 40.90148 | 10.04730 | 14300 ft | 352 kts | 244° |
| 2026-04-28 17:14 | 40.89078 | 10.01830 | 14061 ft | 350 kts | 244° |
| 2026-04-28 17:15 | 40.88040 | 9.98950 | 13805 ft | 344 kts | 245° |
| 2026-04-28 17:15 | 40.87040 | 9.96107 | 13486 ft | 339 kts | 245° |
| 2026-04-28 17:15 | 40.86069 | 9.93301 | 13158 ft | 334 kts | 245° |
| 2026-04-28 17:15 | 40.85120 | 9.90529 | 12833 ft | 329 kts | 245° |
| 2026-04-28 17:16 | 40.84187 | 9.87790 | 12498 ft | 325 kts | 245° |
| 2026-04-28 17:16 | 40.83265 | 9.85077 | 12148 ft | 322 kts | 245° |
| 2026-04-28 17:16 | 40.82354 | 9.82389 | 11838 ft | 319 kts | 245° |
| 2026-04-28 17:16 | 40.81452 | 9.79731 | 11508 ft | 316 kts | 245° |
| 2026-04-28 17:17 | 40.80558 | 9.77099 | 11182 ft | 313 kts | 245° |
| 2026-04-28 17:17 | 40.79670 | 9.74482 | 10861 ft | 311 kts | 245° |
| 2026-04-28 17:17 | 40.78785 | 9.71881 | 10536 ft | 310 kts | 245° |
| 2026-04-28 17:17 | 40.77906 | 9.69296 | 10205 ft | 308 kts | 245° |
| 2026-04-28 17:18 | 40.77040 | 9.66754 | 9862 ft | 299 kts | 245° |
| 2026-04-28 17:18 | 40.76202 | 9.64293 | 9540 ft | 291 kts | 245° |
| 2026-04-28 17:18 | 40.75380 | 9.61884 | 9212 ft | 286 kts | 245° |
| 2026-04-28 17:18 | 40.74565 | 9.59496 | 8888 ft | 285 kts | 245° |
| 2026-04-28 17:19 | 40.73752 | 9.57118 | 8565 ft | 284 kts | 245° |
| 2026-04-28 17:19 | 40.72942 | 9.54749 | 8250 ft | 283 kts | 245° |
| 2026-04-28 17:19 | 40.72134 | 9.52387 | 7929 ft | 282 kts | 245° |
| 2026-04-28 17:19 | 40.71328 | 9.50033 | 7601 ft | 282 kts | 245° |
| 2026-04-28 17:20 | 40.70522 | 9.47683 | 7281 ft | 281 kts | 245° |
| 2026-04-28 17:20 | 40.69992 | 9.46138 | 7058 ft | 277 kts | 245° |
| 2026-04-28 17:20 | 40.68948 | 9.43091 | 6609 ft | 268 kts | 245° |
| 2026-04-28 17:20 | 40.68188 | 9.40879 | 6278 ft | 262 kts | 245° |
| 2026-04-28 17:21 | 40.67448 | 9.38729 | 6039 ft | 252 kts | 245° |
| 2026-04-28 17:21 | 40.66736 | 9.36662 | 5739 ft | 246 kts | 245° |
| 2026-04-28 17:21 | 40.66056 | 9.34637 | 5509 ft | 237 kts | 251° |
| 2026-04-28 17:22 | 40.66608 | 9.30680 | 5078 ft | 222 kts | 309° |
| 2026-04-28 17:22 | 40.67737 | 9.29335 | 5024 ft | 219 kts | 323° |
| 2026-04-28 17:22 | 40.68974 | 9.28198 | 5019 ft | 220 kts | 325° |
| 2026-04-28 17:23 | 40.71482 | 9.25922 | 4995 ft | 217 kts | 324° |
| 2026-04-28 17:23 | 40.72724 | 9.24816 | 4992 ft | 215 kts | 332° |
| 2026-04-28 17:23 | 40.74158 | 9.24462 | 4984 ft | 214 kts | 12° |
| 2026-04-28 17:23 | 40.75463 | 9.25451 | 4759 ft | 224 kts | 51° |
| 2026-04-28 17:24 | 40.76404 | 9.26984 | 4888 ft | 207 kts | 45° |
| 2026-04-28 17:24 | 40.77388 | 9.28328 | 4713 ft | 201 kts | 47° |
| 2026-04-28 17:24 | 40.78305 | 9.29710 | 4427 ft | 199 kts | 51° |
| 2026-04-28 17:24 | 40.79137 | 9.31168 | 4111 ft | 199 kts | 54° |
| 2026-04-28 17:25 | 40.79927 | 9.32657 | 3807 ft | 198 kts | 56° |
| 2026-04-28 17:25 | 40.81438 | 9.35567 | 3197 ft | 184 kts | 56° |
| 2026-04-28 17:25 | 40.82142 | 9.36923 | 2926 ft | 175 kts | 56° |
| 2026-04-28 17:26 | 40.82813 | 9.38214 | 2692 ft | 164 kts | 56° |
| 2026-04-28 17:26 | 40.83455 | 9.39448 | 2420 ft | 163 kts | 56° |
| 2026-04-28 17:26 | 40.84099 | 9.40687 | 2161 ft | 162 kts | 56° |
| 2026-04-28 17:26 | 40.84716 | 9.41874 | 1903 ft | 152 kts | 56° |
| 2026-04-28 17:27 | 40.85291 | 9.42982 | 1676 ft | 142 kts | 56° |
| 2026-04-28 17:27 | 40.85841 | 9.44036 | 1470 ft | 140 kts | 56° |
| 2026-04-28 17:27 | 40.86413 | 9.45135 | 1273 ft | 149 kts | 56° |
| 2026-04-28 17:27 | 40.86999 | 9.46263 | 1021 ft | 148 kts | 56° |
| 2026-04-28 17:28 | 40.87575 | 9.47369 | 783 ft | 145 kts | 56° |
| 2026-04-28 17:28 | 40.88717 | 9.49542 | 346 ft | 144 kts | 54° |
| 2026-04-28 17:28 | 40.89274 | 9.50625 | 122 ft | 145 kts | 56° |
| 2026-04-28 17:29 | 40.89827 | 9.51676 | 32 ft | 126 kts | 56° |
| 2026-04-28 17:29 | 40.90202 | 9.52400 | 34 ft | 61 kts | 56° |
| 2026-04-28 17:29 | 40.90336 | 9.52654 | 33 ft | 16 kts | 52° |
| 2026-04-28 17:30 | 40.90455 | 9.52574 | 33 ft | 11 kts | 271° |
| 2026-04-28 17:30 | 40.90438 | 9.52461 | 32 ft | 8 kts | 238° |
| 2026-04-28 17:30 | 40.90403 | 9.52399 | 33 ft | 8 kts | 231° |
| 2026-04-28 17:31 | 40.90371 | 9.52337 | 33 ft | 8 kts | 238° |
| 2026-04-28 17:31 | 40.90303 | 9.52210 | 33 ft | 10 kts | 237° |
| 2026-04-28 17:32 | 40.90212 | 9.52030 | 33 ft | 13 kts | 235° |
| 2026-04-28 17:32 | 40.90176 | 9.51921 | 33 ft | 14 kts | 272° |
| 2026-04-28 17:32 | 40.90203 | 9.51808 | 33 ft | 12 kts | 317° |
| 2026-04-28 17:32 | 40.90196 | 9.51713 | 31 ft | 12 kts | 237° |
| 2026-04-28 17:33 | 40.90152 | 9.51627 | 33 ft | 11 kts | 234° |
| 2026-04-28 17:33 | 40.90137 | 9.51565 | 33 ft | 5 kts | 298° |
| 2026-04-28 17:33 | 40.90167 | 9.51540 | 33 ft | 5 kts | 326° |
| 2026-04-28 17:33 | 40.90177 | 9.51530 | 33 ft | 5 kts | 321° |
| 2026-04-28 17:34 | 40.90180 | 9.51527 | 33 ft | 0 kts | 321° |